createdAt,value
2019-05-16T00:00:29.003Z,12.25
2019-05-16T00:01:30.055Z,12.25
2019-05-16T00:02:28.525Z,12.26
2019-05-16T00:03:28.318Z,12.25
2019-05-16T00:04:28.465Z,12.26
2019-05-16T00:05:28.368Z,12.23
2019-05-16T00:06:28.518Z,12.19
2019-05-16T00:07:28.451Z,12.15
2019-05-16T00:08:28.689Z,12.07
2019-05-16T00:09:28.691Z,12.20
2019-05-16T00:10:28.498Z,12.16
2019-05-16T00:11:28.526Z,12.13
2019-05-16T00:12:32.188Z,12.18
2019-05-16T00:13:28.571Z,12.15
2019-05-16T00:14:28.598Z,12.07
2019-05-16T00:15:28.915Z,12.20
2019-05-16T00:16:28.862Z,12.20
2019-05-16T00:17:28.675Z,12.15
2019-05-16T00:18:28.714Z,12.19
2019-05-16T00:20:11.276Z,12.15
2019-05-16T00:21:11.302Z,12.11
2019-05-16T00:22:11.331Z,12.03
2019-05-16T00:23:11.363Z,12.11
2019-05-16T00:24:11.381Z,12.04
2019-05-16T00:25:11.407Z,12.11
2019-05-16T00:26:11.433Z,12.10
2019-05-16T00:27:11.464Z,12.19
2019-05-16T00:28:11.482Z,12.13
2019-05-16T00:29:11.508Z,12.10
2019-05-16T00:30:11.536Z,12.19
2019-05-16T00:31:11.561Z,12.15
2019-05-16T00:32:11.585Z,12.11
2019-05-16T00:33:11.610Z,12.08
2019-05-16T00:34:11.639Z,12.04
2019-05-16T00:35:11.662Z,12.13
2019-05-16T00:36:11.689Z,12.15
2019-05-16T00:37:11.716Z,12.08
2019-05-16T00:38:11.743Z,12.11
2019-05-16T00:39:11.767Z,12.18
2019-05-16T00:40:11.793Z,12.11
2019-05-16T00:41:11.824Z,12.16
2019-05-16T00:42:11.845Z,12.23
2019-05-16T00:43:11.868Z,12.22
2019-05-16T00:44:11.897Z,12.15
2019-05-16T00:45:13.506Z,12.16
2019-05-16T00:46:11.951Z,12.15
2019-05-16T00:47:11.973Z,12.18
2019-05-16T00:48:12.001Z,12.15
2019-05-16T00:49:12.029Z,12.10
2019-05-16T00:50:12.051Z,12.10
2019-05-16T00:51:12.075Z,12.16
2019-05-16T00:52:12.100Z,12.10
2019-05-16T00:53:12.145Z,12.07
2019-05-16T00:54:12.151Z,12.16
2019-05-16T00:55:12.179Z,12.07
2019-05-16T00:56:12.205Z,12.04
2019-05-16T00:57:12.228Z,12.08
2019-05-16T00:58:12.254Z,12.11
2019-05-16T00:59:12.281Z,12.11
2019-05-16T01:00:12.311Z,12.10
2019-05-16T01:01:12.333Z,12.18
2019-05-16T01:02:12.362Z,12.15
2019-05-16T01:03:12.384Z,12.05
2019-05-16T01:04:12.414Z,12.01
2019-05-16T01:05:14.503Z,12.04
2019-05-16T01:06:18.590Z,11.94
2019-05-16T01:07:12.485Z,12.03
2019-05-16T01:08:12.513Z,12.01
2019-05-16T01:09:12.538Z,12.07
2019-05-16T01:10:12.563Z,12.03
2019-05-16T01:11:12.592Z,12.00
2019-05-16T01:12:12.617Z,12.10
2019-05-16T01:13:12.639Z,12.05
2019-05-16T01:14:12.668Z,12.01
2019-05-16T01:15:12.691Z,12.04
2019-05-16T01:16:12.736Z,11.94
2019-05-16T01:17:12.749Z,11.91
2019-05-16T01:18:12.776Z,11.89
2019-05-16T01:19:12.800Z,12.07
2019-05-16T01:20:12.821Z,12.05
2019-05-16T01:21:12.848Z,12.05
2019-05-16T01:22:12.873Z,11.89
2019-05-16T01:23:12.904Z,12.00
2019-05-16T01:24:12.931Z,11.98
2019-05-16T01:25:12.950Z,11.95
2019-05-16T01:26:12.973Z,11.95
2019-05-16T01:27:12.998Z,11.95
2019-05-16T01:28:13.031Z,11.79
2019-05-16T01:29:13.050Z,11.79
2019-05-16T01:30:13.079Z,11.84
2019-05-16T01:31:13.104Z,11.86
2019-05-16T01:32:13.140Z,11.91
2019-05-16T01:33:13.156Z,11.84
2019-05-16T01:34:13.179Z,11.81
2019-05-16T01:35:13.205Z,11.95
2019-05-16T01:36:13.236Z,11.89
2019-05-16T01:37:13.266Z,11.95
2019-05-16T01:38:13.284Z,11.84
2019-05-16T01:39:13.309Z,11.86
2019-05-16T01:40:13.433Z,11.91
2019-05-16T01:41:13.361Z,11.89
2019-05-16T01:42:13.388Z,11.95
2019-05-16T01:43:13.412Z,11.98
2019-05-16T01:44:13.447Z,12.03
2019-05-16T01:45:13.466Z,11.94
2019-05-16T01:46:13.498Z,11.98
2019-05-16T01:47:13.522Z,11.97
2019-05-16T01:48:14.959Z,11.95
2019-05-16T01:49:13.569Z,11.97
2019-05-16T01:50:13.593Z,11.98
2019-05-16T01:51:13.616Z,12.07
2019-05-16T01:52:13.645Z,12.03
2019-05-16T01:53:13.671Z,12.10
2019-05-16T01:54:13.694Z,12.03
2019-05-16T01:55:13.719Z,12.03
2019-05-16T01:56:13.745Z,12.01
2019-05-16T01:57:13.771Z,12.08
2019-05-16T01:58:13.799Z,11.94
2019-05-16T01:59:13.829Z,12.01
2019-05-16T02:00:13.849Z,12.00
2019-05-16T02:01:15.901Z,12.03
2019-05-16T02:02:13.903Z,12.05
2019-05-16T02:03:13.928Z,12.08
2019-05-16T02:04:13.952Z,11.89
2019-05-16T02:05:13.980Z,12.01
2019-05-16T02:06:14.006Z,12.00
2019-05-16T02:07:14.031Z,11.91
2019-05-16T02:08:14.058Z,11.98
2019-05-16T02:09:14.083Z,12.08
2019-05-16T02:10:14.109Z,12.00
2019-05-16T02:11:14.131Z,12.00
2019-05-16T02:12:14.160Z,11.94
2019-05-16T02:13:14.190Z,12.00
2019-05-16T02:14:14.818Z,11.95
2019-05-16T02:15:14.240Z,11.95
2019-05-16T02:16:14.266Z,11.86
2019-05-16T02:17:14.287Z,11.94
2019-05-16T02:18:14.313Z,11.94
2019-05-16T02:19:14.338Z,11.84
2019-05-16T02:20:14.364Z,11.78
2019-05-16T02:21:14.395Z,11.81
2019-05-16T02:22:14.417Z,11.82
2019-05-16T02:23:14.439Z,11.73
2019-05-16T02:24:14.467Z,11.73
2019-05-16T02:25:14.492Z,11.76
2019-05-16T02:26:14.526Z,11.78
2019-05-16T02:27:14.541Z,11.71
2019-05-16T02:28:14.569Z,11.75
2019-05-16T02:29:14.594Z,11.73
2019-05-16T02:30:14.624Z,11.75
2019-05-16T02:31:15.431Z,11.67
2019-05-16T02:32:14.671Z,11.67
2019-05-16T02:33:14.699Z,11.61
2019-05-16T02:34:14.725Z,11.70
2019-05-16T02:35:14.757Z,11.60
2019-05-16T02:36:14.785Z,11.59
2019-05-16T02:37:24.178Z,11.56
2019-05-16T02:38:14.827Z,11.57
2019-05-16T02:39:14.851Z,11.56
2019-05-16T02:40:14.887Z,11.57
2019-05-16T02:41:14.902Z,11.63
2019-05-16T02:42:14.934Z,11.52
2019-05-16T02:43:14.959Z,11.57
2019-05-16T02:44:14.978Z,11.49
2019-05-16T02:45:15.020Z,11.52
2019-05-16T02:46:15.032Z,11.35
2019-05-16T02:47:15.064Z,11.39
2019-05-16T02:48:15.123Z,11.39
2019-05-16T02:49:15.113Z,11.45
2019-05-16T02:50:15.136Z,11.35
2019-05-16T02:51:15.161Z,11.41
2019-05-16T02:52:15.191Z,11.27
2019-05-16T02:53:15.212Z,11.45
2019-05-16T02:54:15.248Z,11.38
2019-05-16T02:55:15.263Z,11.42
2019-05-16T02:56:15.307Z,11.27
2019-05-16T02:57:15.321Z,11.33
2019-05-16T02:58:15.346Z,11.24
2019-05-16T02:59:15.374Z,11.23
2019-05-16T03:00:15.388Z,11.24
2019-05-16T03:01:15.422Z,11.28
2019-05-16T03:02:15.441Z,11.16
2019-05-16T03:03:15.471Z,11.13
2019-05-16T03:04:15.499Z,11.23
2019-05-16T03:05:15.518Z,11.16
2019-05-16T03:06:15.547Z,11.31
2019-05-16T03:07:32.829Z,11.24
2019-05-16T03:08:15.595Z,11.23
2019-05-16T03:09:15.632Z,11.28
2019-05-16T03:10:15.644Z,11.13
2019-05-16T03:11:15.676Z,11.18
2019-05-16T03:12:15.697Z,11.15
2019-05-16T03:13:15.723Z,11.16
2019-05-16T03:14:15.747Z,11.15
2019-05-16T03:15:15.776Z,11.15
2019-05-16T03:16:15.807Z,11.23
2019-05-16T03:17:15.827Z,11.21
2019-05-16T03:18:15.848Z,11.16
2019-05-16T03:19:15.876Z,11.10
2019-05-16T03:20:15.907Z,11.18
2019-05-16T03:21:15.935Z,11.13
2019-05-16T03:22:15.949Z,11.23
2019-05-16T03:23:15.977Z,11.21
2019-05-16T03:24:16.001Z,11.16
2019-05-16T03:25:16.025Z,11.15
2019-05-16T03:26:16.054Z,11.02
2019-05-16T03:27:16.081Z,11.05
2019-05-16T03:28:16.100Z,11.05
2019-05-16T03:29:16.126Z,11.06
2019-05-16T03:30:17.152Z,11.09
2019-05-16T03:31:16.250Z,11.06
2019-05-16T03:32:16.205Z,11.02
2019-05-16T03:33:24.097Z,11.03
2019-05-16T03:34:17.395Z,10.98
2019-05-16T03:35:17.007Z,11.03
2019-05-16T03:36:16.613Z,11.05
2019-05-16T03:37:16.331Z,10.90
2019-05-16T03:38:16.359Z,10.91
2019-05-16T03:39:16.382Z,10.92
2019-05-16T03:40:16.405Z,10.97
2019-05-16T03:41:16.433Z,11.02
2019-05-16T03:42:16.468Z,10.97
2019-05-16T03:43:16.486Z,10.95
2019-05-16T03:44:16.510Z,11.00
2019-05-16T03:45:16.543Z,10.92
2019-05-16T03:46:16.558Z,10.91
2019-05-16T03:47:16.584Z,10.97
2019-05-16T03:48:16.616Z,10.98
2019-05-16T03:49:16.635Z,10.91
2019-05-16T03:50:16.660Z,10.94
2019-05-16T03:51:16.685Z,10.92
2019-05-16T03:52:16.709Z,11.02
2019-05-16T03:53:16.734Z,10.97
2019-05-16T03:54:16.768Z,10.91
2019-05-16T03:55:16.795Z,10.95
2019-05-16T03:56:16.814Z,10.97
2019-05-16T03:57:16.838Z,10.94
2019-05-16T03:58:16.867Z,11.00
2019-05-16T03:59:16.891Z,10.94
2019-05-16T04:00:16.941Z,10.94
2019-05-16T04:01:16.938Z,10.90
2019-05-16T04:02:16.967Z,10.94
2019-05-16T04:03:16.997Z,11.03
2019-05-16T04:04:17.015Z,11.08
2019-05-16T04:05:17.056Z,10.98
2019-05-16T04:06:17.064Z,11.08
2019-05-16T04:07:17.090Z,10.98
2019-05-16T04:08:20.635Z,11.05
2019-05-16T04:09:17.143Z,11.00
2019-05-16T04:10:17.174Z,11.03
2019-05-16T04:11:22.101Z,11.05
2019-05-16T04:12:17.225Z,11.09
2019-05-16T04:13:17.244Z,11.05
2019-05-16T04:14:17.286Z,10.91
2019-05-16T04:15:17.299Z,11.02
2019-05-16T04:16:17.324Z,11.00
2019-05-16T04:17:17.343Z,10.95
2019-05-16T04:18:17.374Z,10.92
2019-05-16T04:19:20.866Z,10.94
2019-05-16T04:20:17.421Z,10.94
2019-05-16T04:21:20.866Z,10.92
2019-05-16T04:22:17.470Z,11.00
2019-05-16T04:23:20.375Z,10.95
2019-05-16T04:24:21.390Z,11.02
2019-05-16T04:25:17.548Z,10.91
2019-05-16T04:26:17.578Z,10.91
2019-05-16T04:27:17.625Z,10.97
2019-05-16T04:28:21.349Z,10.92
2019-05-16T04:29:20.457Z,10.94
2019-05-16T04:30:17.674Z,11.05
2019-05-16T04:31:17.701Z,11.00
2019-05-16T04:32:20.568Z,10.94
2019-05-16T04:33:17.754Z,10.92
2019-05-16T04:34:20.442Z,10.88
2019-05-16T04:35:21.116Z,10.85
2019-05-16T04:36:21.063Z,10.88
2019-05-16T04:37:17.879Z,10.92
2019-05-16T04:38:31.671Z,10.98
2019-05-16T04:39:20.899Z,11.00
2019-05-16T04:40:17.934Z,11.06
2019-05-16T04:41:20.821Z,11.09
2019-05-16T04:42:21.291Z,11.08
2019-05-16T04:43:18.000Z,10.95
2019-05-16T04:44:21.042Z,10.91
2019-05-16T04:45:21.018Z,11.02
2019-05-16T04:46:20.853Z,10.98
2019-05-16T04:47:20.881Z,10.94
2019-05-16T04:48:21.813Z,10.94
2019-05-16T04:49:20.936Z,10.90
2019-05-16T04:50:21.121Z,10.90
2019-05-16T04:51:21.587Z,10.91
2019-05-16T04:52:21.483Z,10.92
2019-05-16T04:53:20.691Z,10.90
2019-05-16T04:54:21.349Z,10.95
2019-05-16T04:55:21.068Z,10.92
2019-05-16T04:56:21.327Z,10.98
2019-05-16T04:57:20.892Z,11.00
2019-05-16T04:58:22.930Z,11.06
2019-05-16T04:59:20.806Z,11.06
2019-05-16T05:00:21.284Z,11.13
2019-05-16T05:01:21.205Z,11.21
2019-05-16T05:02:21.218Z,11.18
2019-05-16T05:03:20.865Z,11.20
2019-05-16T05:04:21.205Z,11.21
2019-05-16T05:05:21.569Z,11.21
2019-05-16T05:06:20.843Z,11.27
2019-05-16T05:07:20.652Z,11.18
2019-05-16T05:08:21.700Z,11.23
2019-05-16T05:09:20.898Z,11.21
2019-05-16T05:10:20.649Z,11.18
2019-05-16T05:11:21.401Z,11.27
2019-05-16T05:12:20.860Z,11.18
2019-05-16T05:13:21.939Z,11.20
2019-05-16T05:14:21.219Z,11.23
2019-05-16T05:15:21.252Z,11.23
2019-05-16T05:16:20.358Z,11.21
2019-05-16T05:17:21.029Z,11.30
2019-05-16T05:18:21.220Z,11.33
2019-05-16T05:19:20.272Z,11.26
2019-05-16T05:20:21.029Z,11.31
2019-05-16T05:21:20.885Z,11.23
2019-05-16T05:22:19.914Z,11.34
2019-05-16T05:23:20.991Z,11.39
2019-05-16T05:24:19.690Z,11.30
2019-05-16T05:25:20.396Z,11.35
2019-05-16T05:26:19.970Z,11.28
2019-05-16T05:27:19.757Z,11.39
2019-05-16T05:28:21.024Z,11.41
2019-05-16T05:29:20.025Z,11.53
2019-05-16T05:30:19.767Z,11.49
2019-05-16T05:31:25.153Z,11.45
2019-05-16T05:32:20.026Z,11.43
2019-05-16T05:33:21.003Z,11.56
2019-05-16T05:34:19.881Z,11.60
2019-05-16T05:35:20.700Z,11.60
2019-05-16T05:36:21.082Z,11.53
2019-05-16T05:37:20.471Z,11.64
2019-05-16T05:38:21.342Z,11.56
2019-05-16T05:39:20.041Z,11.61
2019-05-16T05:40:20.099Z,11.60
2019-05-16T05:41:19.937Z,11.59
2019-05-16T05:42:20.011Z,11.68
2019-05-16T05:43:21.450Z,11.66
2019-05-16T05:44:20.319Z,11.53
2019-05-16T05:45:20.153Z,11.68
2019-05-16T05:46:20.477Z,11.61
2019-05-16T05:47:20.076Z,11.66
2019-05-16T05:48:21.592Z,11.75
2019-05-16T05:49:20.506Z,11.76
2019-05-16T05:50:20.289Z,11.81
2019-05-16T05:51:20.702Z,11.68
2019-05-16T05:52:20.795Z,11.76
2019-05-16T05:53:20.799Z,11.68
2019-05-16T05:54:20.364Z,11.64
2019-05-16T05:55:20.238Z,11.63
2019-05-16T05:56:19.921Z,11.53
2019-05-16T05:57:20.882Z,11.56
2019-05-16T05:58:20.574Z,11.53
2019-05-16T05:59:20.250Z,11.53
2019-05-16T06:00:21.105Z,11.53
2019-05-16T06:01:20.674Z,11.45
2019-05-16T06:02:20.253Z,11.52
2019-05-16T06:03:22.505Z,11.52
2019-05-16T06:04:20.075Z,11.41
2019-05-16T06:05:20.369Z,11.49
2019-05-16T06:06:21.047Z,11.41
2019-05-16T06:07:20.637Z,11.41
2019-05-16T06:08:20.459Z,11.42
2019-05-16T06:09:28.300Z,11.56
2019-05-16T06:10:20.216Z,11.67
2019-05-16T06:11:20.659Z,11.66
2019-05-16T06:12:21.202Z,11.66
2019-05-16T06:13:20.929Z,11.63
2019-05-16T06:14:21.194Z,11.59
2019-05-16T06:15:20.471Z,11.64
2019-05-16T06:16:20.683Z,11.64
2019-05-16T06:17:20.400Z,11.64
2019-05-16T06:18:20.489Z,11.67
2019-05-16T06:19:20.556Z,11.57
2019-05-16T06:20:20.553Z,11.63
2019-05-16T06:21:20.637Z,11.57
2019-05-16T06:22:20.679Z,11.67
2019-05-16T06:23:21.138Z,11.63
2019-05-16T06:24:20.576Z,11.71
2019-05-16T06:25:22.776Z,11.41
2019-05-16T06:26:20.762Z,11.41
2019-05-16T06:27:21.057Z,11.38
2019-05-16T06:28:21.321Z,11.45
2019-05-16T06:29:20.707Z,11.42
2019-05-16T06:30:21.462Z,11.39
2019-05-16T06:31:22.050Z,11.45
2019-05-16T06:32:20.786Z,11.52
2019-05-16T06:33:20.813Z,11.43
2019-05-16T06:34:21.107Z,11.43
2019-05-16T06:35:23.948Z,11.53
2019-05-16T06:36:20.895Z,11.64
2019-05-16T06:37:20.911Z,11.53
2019-05-16T06:38:21.420Z,11.70
2019-05-16T06:39:20.967Z,11.66
2019-05-16T06:40:20.995Z,11.73
2019-05-16T06:41:21.015Z,11.75
2019-05-16T06:42:21.041Z,11.73
2019-05-16T06:43:21.067Z,11.73
2019-05-16T06:44:21.092Z,11.86
2019-05-16T06:45:21.120Z,12.00
2019-05-16T06:46:21.149Z,11.91
2019-05-16T06:47:23.113Z,11.91
2019-05-16T06:48:21.676Z,11.88
2019-05-16T06:49:21.229Z,12.03
2019-05-16T06:50:21.248Z,12.05
2019-05-16T06:51:21.271Z,12.13
2019-05-16T06:52:21.296Z,12.03
2019-05-16T06:53:21.464Z,12.22
2019-05-16T06:54:21.382Z,12.31
2019-05-16T06:55:21.376Z,12.37
2019-05-16T06:56:21.402Z,12.48
2019-05-16T06:57:21.426Z,12.43
2019-05-16T06:58:22.434Z,12.45
2019-05-16T06:59:21.479Z,12.44
2019-05-16T07:00:21.510Z,12.51
2019-05-16T07:01:21.535Z,12.59
2019-05-16T07:02:29.839Z,12.59
2019-05-16T07:03:21.584Z,12.51
2019-05-16T07:04:21.607Z,12.55
2019-05-16T07:05:21.638Z,12.34
2019-05-16T07:06:45.469Z,12.31
2019-05-16T07:07:21.695Z,12.20
2019-05-16T07:08:21.725Z,12.22
2019-05-16T07:09:21.747Z,12.16
2019-05-16T07:10:21.771Z,12.15
2019-05-16T07:11:21.790Z,12.07
2019-05-16T07:12:21.817Z,12.03
2019-05-16T07:13:21.843Z,12.05
2019-05-16T07:14:22.768Z,12.05
2019-05-16T07:15:21.895Z,12.15
2019-05-16T07:16:21.971Z,12.04
2019-05-16T07:17:21.947Z,12.04
2019-05-16T07:18:21.976Z,12.05
2019-05-16T07:19:22.008Z,12.13
2019-05-16T07:20:22.028Z,12.20
2019-05-16T07:21:22.052Z,12.28
2019-05-16T07:22:22.078Z,12.23
2019-05-16T07:23:22.111Z,12.25
2019-05-16T07:24:22.132Z,12.22
2019-05-16T07:25:22.155Z,12.26
2019-05-16T07:26:22.188Z,12.31
2019-05-16T07:27:22.214Z,12.37
2019-05-16T07:28:22.234Z,12.41
2019-05-16T07:29:22.267Z,12.40
2019-05-16T07:30:22.295Z,12.33
2019-05-16T07:31:22.764Z,12.43
2019-05-16T07:32:22.345Z,12.43
2019-05-16T07:33:22.373Z,12.62
2019-05-16T07:34:22.401Z,12.63
2019-05-16T07:35:22.432Z,12.65
2019-05-16T07:36:22.453Z,12.77
2019-05-16T07:37:22.478Z,12.76
2019-05-16T07:38:22.496Z,12.81
2019-05-16T07:39:22.524Z,12.71
2019-05-16T07:40:26.597Z,12.77
2019-05-16T07:41:22.575Z,12.86
2019-05-16T07:42:22.607Z,12.89
2019-05-16T07:43:22.627Z,12.80
2019-05-16T07:44:22.657Z,12.74
2019-05-16T07:45:22.680Z,12.70
2019-05-16T07:46:22.715Z,12.65
2019-05-16T07:47:22.735Z,12.63
2019-05-16T07:48:22.765Z,12.63
2019-05-16T07:49:22.785Z,12.66
2019-05-16T07:50:22.811Z,12.71
2019-05-16T07:51:22.837Z,12.76
2019-05-16T07:52:22.866Z,12.78
2019-05-16T07:53:22.890Z,12.86
2019-05-16T07:54:22.935Z,12.84
2019-05-16T07:55:22.950Z,12.89
2019-05-16T07:56:22.986Z,12.83
2019-05-16T07:57:23.269Z,12.99
2019-05-16T07:58:23.024Z,13.11
2019-05-16T07:59:23.056Z,13.10
2019-05-16T08:00:44.570Z,13.11
2019-05-16T08:01:23.106Z,13.17
2019-05-16T08:02:23.137Z,13.31
2019-05-16T08:03:23.161Z,13.39
2019-05-16T08:04:23.184Z,13.53
2019-05-16T08:05:23.207Z,13.76
2019-05-16T08:06:23.234Z,13.99
2019-05-16T08:07:23.266Z,14.20
2019-05-16T08:08:24.491Z,14.12
2019-05-16T08:09:23.313Z,14.06
2019-05-16T08:10:37.136Z,14.21
2019-05-16T08:11:23.786Z,14.19
2019-05-16T08:12:26.189Z,14.03
2019-05-16T08:13:23.425Z,14.21
2019-05-16T08:14:23.458Z,14.12
2019-05-16T08:15:23.477Z,14.19
2019-05-16T08:16:23.503Z,14.16
2019-05-16T08:17:23.530Z,14.20
2019-05-16T08:18:23.563Z,14.30
2019-05-16T08:19:25.297Z,14.31
2019-05-16T08:20:23.609Z,14.27
2019-05-16T08:21:27.566Z,14.21
2019-05-16T08:22:23.665Z,14.11
2019-05-16T08:23:23.694Z,14.11
2019-05-16T08:24:23.725Z,14.12
2019-05-16T08:25:23.755Z,14.06
2019-05-16T08:26:23.806Z,14.16
2019-05-16T08:27:23.802Z,14.03
2019-05-16T08:28:23.835Z,14.03
2019-05-16T08:29:23.855Z,14.09
2019-05-16T08:30:23.885Z,14.05
2019-05-16T08:31:23.919Z,14.16
2019-05-16T08:32:23.946Z,14.06
2019-05-16T08:33:23.989Z,13.99
2019-05-16T08:34:23.994Z,13.95
2019-05-16T08:35:24.017Z,13.84
2019-05-16T08:36:24.048Z,13.86
2019-05-16T08:37:36.885Z,13.81
2019-05-16T08:38:24.115Z,13.69
2019-05-16T08:39:24.128Z,13.63
2019-05-16T08:40:24.155Z,13.65
2019-05-16T08:41:24.183Z,13.72
2019-05-16T08:42:24.217Z,13.79
2019-05-16T08:43:24.244Z,13.88
2019-05-16T08:44:24.264Z,13.95
2019-05-16T08:45:24.297Z,16.00
2019-05-16T08:46:24.326Z,16.84
2019-05-16T08:47:24.354Z,17.10
2019-05-16T08:48:24.395Z,17.46
2019-05-16T08:49:24.403Z,17.50
2019-05-16T08:50:24.437Z,17.84
2019-05-16T08:51:24.457Z,17.84
2019-05-16T08:52:24.483Z,17.88
2019-05-16T08:53:24.510Z,17.81
2019-05-16T08:54:24.538Z,17.55
2019-05-16T08:55:24.571Z,17.45
2019-05-16T08:56:24.595Z,16.95
2019-05-16T08:57:28.986Z,16.47
2019-05-16T08:58:24.651Z,16.10
2019-05-16T08:59:24.681Z,15.96
2019-05-16T09:00:24.711Z,15.98
2019-05-16T09:01:24.751Z,15.99
2019-05-16T09:02:35.502Z,15.88
2019-05-16T09:03:24.790Z,15.58
2019-05-16T09:04:25.409Z,15.23
2019-05-16T09:05:24.854Z,15.26
2019-05-16T09:06:24.880Z,15.25
2019-05-16T09:07:24.908Z,15.26
2019-05-16T09:08:24.930Z,15.13
2019-05-16T09:09:41.623Z,15.13
2019-05-16T09:11:35.539Z,14.87
2019-05-16T09:12:27.696Z,14.77
2019-05-16T09:13:27.736Z,14.69
2019-05-16T09:14:27.672Z,14.74
2019-05-16T09:15:27.270Z,14.82
2019-05-16T09:16:27.530Z,14.90
2019-05-16T09:17:27.720Z,15.22
2019-05-16T09:18:28.239Z,15.19
2019-05-16T09:19:27.474Z,15.33
2019-05-16T09:20:28.008Z,15.31
2019-05-16T09:21:27.504Z,15.33
2019-05-16T09:22:28.008Z,15.19
2019-05-16T09:23:26.792Z,15.65
2019-05-16T09:24:27.192Z,15.86
2019-05-16T09:25:27.495Z,15.52
2019-05-16T09:26:27.727Z,15.51
2019-05-16T09:27:27.303Z,15.65
2019-05-16T09:28:28.257Z,16.02
2019-05-16T09:29:27.316Z,15.84
2019-05-16T09:30:27.431Z,15.60
2019-05-16T09:31:27.525Z,15.63
2019-05-16T09:32:27.946Z,15.60
2019-05-16T09:33:26.976Z,15.73
2019-05-16T09:34:28.374Z,15.70
2019-05-16T09:35:28.065Z,15.53
2019-05-16T09:36:28.061Z,15.26
2019-05-16T09:37:26.748Z,15.40
2019-05-16T09:38:28.459Z,15.45
2019-05-16T09:39:27.717Z,15.31
2019-05-16T09:40:27.872Z,15.43
2019-05-16T09:41:27.262Z,15.52
2019-05-16T09:42:27.730Z,15.73
2019-05-16T09:43:28.044Z,15.60
2019-05-16T09:44:27.308Z,15.49
2019-05-16T09:45:27.264Z,15.37
2019-05-16T09:46:27.568Z,15.37
2019-05-16T09:47:28.216Z,15.30
2019-05-16T09:48:28.035Z,15.44
2019-05-16T09:49:26.291Z,15.58
2019-05-16T09:50:26.645Z,15.58
2019-05-16T09:51:27.103Z,15.62
2019-05-16T09:52:27.398Z,15.71
2019-05-16T09:53:27.607Z,15.70
2019-05-16T09:54:27.397Z,15.55
2019-05-16T09:55:26.876Z,15.51
2019-05-16T09:56:26.975Z,15.37
2019-05-16T09:57:27.767Z,15.41
2019-05-16T09:58:27.815Z,15.43
2019-05-16T09:59:26.493Z,15.53
2019-05-16T10:00:27.057Z,15.47
2019-05-16T10:01:27.613Z,15.60
2019-05-16T10:02:27.369Z,15.73
2019-05-16T10:03:27.177Z,15.83
2019-05-16T10:04:26.825Z,15.56
2019-05-16T10:05:26.957Z,15.43
2019-05-16T10:06:27.601Z,15.40
2019-05-16T10:07:28.258Z,15.41
2019-05-16T10:08:26.933Z,15.47
2019-05-16T10:09:40.209Z,15.62
2019-05-16T10:10:26.694Z,15.52
2019-05-16T10:11:30.914Z,15.45
2019-05-16T10:12:26.747Z,15.44
2019-05-16T10:13:27.638Z,15.38
2019-05-16T10:14:27.000Z,15.26
2019-05-16T10:15:27.096Z,15.19
2019-05-16T10:16:27.505Z,15.22
2019-05-16T10:17:27.364Z,15.16
2019-05-16T10:18:27.763Z,15.22
2019-05-16T10:19:27.565Z,15.08
2019-05-16T10:20:27.480Z,15.04
2019-05-16T10:21:27.308Z,14.97
2019-05-16T10:22:27.326Z,14.87
2019-05-16T10:23:28.373Z,14.64
2019-05-16T10:24:27.095Z,14.67
2019-05-16T10:25:27.855Z,14.61
2019-05-16T10:26:27.727Z,14.60
2019-05-16T10:27:27.177Z,14.60
2019-05-16T10:28:27.798Z,14.69
2019-05-16T10:29:27.626Z,14.75
2019-05-16T10:30:27.255Z,14.63
2019-05-16T10:31:41.552Z,14.45
2019-05-16T10:32:27.498Z,14.52
2019-05-16T10:33:27.745Z,14.44
2019-05-16T10:34:27.364Z,14.42
2019-05-16T10:35:30.126Z,14.45
2019-05-16T10:36:28.111Z,14.46
2019-05-16T10:37:27.456Z,14.42
2019-05-16T10:38:28.537Z,14.44
2019-05-16T10:39:27.500Z,14.41
2019-05-16T10:40:27.539Z,14.39
2019-05-16T10:41:27.553Z,14.46
2019-05-16T10:42:29.239Z,14.30
2019-05-16T10:43:27.610Z,14.21
2019-05-16T10:44:28.374Z,14.23
2019-05-16T10:45:27.666Z,14.16
2019-05-16T10:46:27.707Z,14.16
2019-05-16T10:47:31.122Z,14.11
2019-05-16T10:48:27.745Z,14.20
2019-05-16T10:49:36.780Z,14.15
2019-05-16T10:50:27.922Z,14.23
2019-05-16T10:51:27.853Z,14.21
2019-05-16T10:52:27.854Z,14.16
2019-05-16T10:53:58.180Z,14.16
2019-05-16T10:54:28.052Z,14.12
2019-05-16T10:55:27.990Z,14.15
2019-05-16T10:56:27.965Z,14.12
2019-05-16T10:57:29.929Z,14.20
2019-05-16T10:58:36.509Z,14.21
2019-05-16T11:00:57.662Z,14.21
2019-05-16T11:01:31.209Z,14.23
2019-05-16T11:02:28.148Z,14.19
2019-05-16T11:03:28.347Z,14.05
2019-05-16T11:04:37.190Z,14.05
2019-05-16T11:05:33.664Z,14.15
2019-05-16T11:06:29.424Z,14.06
2019-05-16T11:07:29.789Z,14.06
2019-05-16T11:08:28.288Z,14.01
2019-05-16T11:09:28.315Z,13.95
2019-05-16T11:10:29.659Z,14.01
2019-05-16T11:11:28.370Z,13.90
2019-05-16T11:12:46.042Z,13.94
2019-05-16T11:13:28.422Z,14.02
2019-05-16T11:14:28.450Z,13.99
2019-05-16T11:15:28.480Z,14.05
2019-05-16T11:16:28.512Z,14.03
2019-05-16T11:17:28.533Z,14.03
2019-05-16T11:18:28.559Z,14.06
2019-05-16T11:19:28.598Z,14.11
2019-05-16T11:20:28.712Z,14.09
2019-05-16T11:21:28.639Z,14.06
2019-05-16T11:22:30.034Z,14.06
2019-05-16T11:23:31.448Z,14.03
2019-05-16T11:24:29.401Z,14.15
2019-05-16T11:25:32.477Z,14.20
2019-05-16T11:26:30.225Z,14.01
2019-05-16T11:27:28.798Z,14.09
2019-05-16T11:28:28.837Z,14.05
2019-05-16T11:29:28.859Z,14.08
2019-05-16T11:30:28.938Z,14.12
2019-05-16T11:31:28.908Z,14.21
2019-05-16T11:32:28.933Z,14.16
2019-05-16T11:33:29.002Z,14.05
2019-05-16T11:34:28.991Z,14.08
2019-05-16T11:35:29.016Z,13.95
2019-05-16T11:36:29.040Z,13.97
2019-05-16T11:37:29.068Z,13.97
2019-05-16T11:38:29.109Z,13.97
2019-05-16T11:39:29.132Z,14.01
2019-05-16T11:40:30.324Z,14.15
2019-05-16T11:41:29.184Z,14.12
2019-05-16T11:42:29.205Z,14.24
2019-05-16T11:43:29.231Z,14.36
2019-05-16T11:44:29.274Z,14.61
2019-05-16T11:45:29.293Z,14.77
2019-05-16T11:46:29.311Z,14.98
2019-05-16T11:47:29.339Z,15.13
2019-05-16T11:48:29.764Z,15.38
2019-05-16T11:49:29.393Z,15.53
2019-05-16T11:50:29.422Z,15.62
2019-05-16T11:51:29.446Z,15.67
2019-05-16T11:52:29.472Z,15.77
2019-05-16T11:53:29.505Z,15.81
2019-05-16T11:54:29.530Z,15.89
2019-05-16T11:55:33.737Z,15.74
2019-05-16T11:56:29.584Z,15.93
2019-05-16T11:57:29.611Z,16.18
2019-05-16T11:58:29.637Z,16.42
2019-05-16T11:59:29.667Z,16.51
2019-05-16T12:00:30.649Z,16.59
2019-05-16T12:01:29.731Z,16.74
2019-05-16T12:02:29.750Z,16.97
2019-05-16T12:03:29.779Z,17.07
2019-05-16T12:04:29.810Z,17.09
2019-05-16T12:05:29.835Z,17.15
2019-05-16T12:06:29.865Z,17.12
2019-05-16T12:07:33.837Z,16.85
2019-05-16T12:08:29.917Z,16.58
2019-05-16T12:09:33.475Z,16.21
2019-05-16T12:10:29.976Z,15.96
2019-05-16T12:11:30.009Z,16.06
2019-05-16T12:12:30.031Z,16.04
2019-05-16T12:13:32.996Z,15.95
2019-05-16T12:14:30.091Z,15.95
2019-05-16T12:15:30.123Z,15.86
2019-05-16T12:16:30.145Z,15.88
2019-05-16T12:17:30.175Z,15.86
2019-05-16T12:18:30.224Z,16.02
2019-05-16T12:19:34.296Z,16.13
2019-05-16T12:20:30.258Z,15.96
2019-05-16T12:21:30.287Z,16.02
2019-05-16T12:22:30.316Z,16.44
2019-05-16T12:23:30.343Z,16.51
2019-05-16T12:24:37.266Z,16.52
2019-05-16T12:25:30.401Z,16.59
2019-05-16T12:26:30.430Z,16.70
2019-05-16T12:27:33.262Z,16.63
2019-05-16T12:28:30.493Z,16.59
2019-05-16T12:29:30.522Z,16.62
2019-05-16T12:30:30.548Z,16.40
2019-05-16T12:31:32.585Z,16.25
2019-05-16T12:32:30.600Z,16.18
2019-05-16T12:33:30.640Z,16.04
2019-05-16T12:34:30.657Z,15.98
2019-05-16T12:35:30.689Z,15.83
2019-05-16T12:36:31.526Z,15.60
2019-05-16T12:37:30.745Z,15.31
2019-05-16T12:38:30.772Z,15.15
2019-05-16T12:39:30.803Z,15.07
2019-05-16T12:40:30.839Z,14.98
2019-05-16T12:41:30.859Z,15.12
2019-05-16T12:42:30.888Z,14.97
2019-05-16T12:43:44.846Z,15.01
2019-05-16T12:44:30.941Z,14.95
2019-05-16T12:45:30.973Z,14.86
2019-05-16T12:46:31.006Z,14.89
2019-05-16T12:47:31.034Z,14.82
2019-05-16T12:48:31.059Z,14.77
2019-05-16T12:49:31.087Z,14.82
2019-05-16T12:50:31.111Z,14.86
2019-05-16T12:51:31.140Z,14.77
2019-05-16T12:52:31.173Z,14.63
2019-05-16T12:53:32.206Z,14.45
2019-05-16T12:54:31.222Z,14.31
2019-05-16T12:55:31.251Z,14.20